Terminal Aerodrome Forecast
Issued by NWS

Home | Current Version | Previous Version | Text Only | Print | Product List | Glossary On
Versions: 1 2 3 4 5 6 7 8 9 10 11 12 13 14 15
000
FTUS43 KGRR 291000 AAB
TAFMKG
TAF AMD
KMKG 291017Z 2910/3006 12006KT P6SM FEW040 OVC050
     FM291200 13007KT 4SM -SN BR OVC040
     FM291600 30015G25KT 4SM -SHSN OVC015=

USA.gov is the U.S. government's official web portal to all federal, state and local government web resources and services.